Shipshewana, Indiana
Current Conditions -  °F | °C
As of 10:34 AM on Thursday 30 Oct 2014 (Local Time) from KIRS Reporting Station
Overcast Overcast  
Wind Chill: 42°   Ceiling: 4300
Heat Index: 45°   Visibility: 10mi
Dew Point: 39°   Wind: 5mph
Humidity: 81%   Direction: 210°SSW
Pressure: 30.14"   Gusts: NA
Location:  41.67°N, 85.58°W
Report Text: KIRS 301434Z AUTO 21004KT 10SM OVC043 07/04 A3014 RMK AO2
Loading
Personal Weather Stations






























Interactive Weather Map
Tropical Storm Tracking
New forecast layout! Learn more

10-Day Weather Forecast

Advertisements
Track Severe Weather on mobile